Time;durP1;ratioP1;P1;durP2;ratioP2;P2;SDS_P1;SDS_P2;PMS_P1;PMS_P2;Temp;Humidity;BMP_temperature;BMP_pressure;BME280_temperature;BME280_humidity;BME280_pressure;Samples;Min_cycle;Max_cycle;Signal;HPM_P1;HPM_P2
2022/01/10 00:00:40;;;;;;;;;40.00;32.50;;;;;7.24;71.56;100632.41;5059951;28;46191;-64
2022/01/10 00:03:07;;;;;;;;;48.75;41.00;;;;;7.19;71.62;100626.28;5059928;28;45280;-64
2022/01/10 00:05:33;;;;;;;;;48.50;40.75;;;;;7.12;71.60;100633.13;5060597;28;45422;-64
2022/01/10 00:08:02;;;;;;;;;49.25;39.50;;;;;7.10;71.71;100627.00;5059400;28;45957;-64
2022/01/10 00:10:28;;;;;;;;;43.00;36.00;;;;;7.13;71.73;100621.84;5055892;28;45477;-65
2022/01/10 00:12:53;;;;;;;;;43.25;36.50;;;;;7.32;71.70;100649.03;5055840;28;45479;-65
2022/01/10 00:15:19;;;;;;;;;41.75;35.75;;;;;7.24;71.44;100635.03;5055270;28;45631;-64
2022/01/10 00:17:45;;;;;;;;;51.00;40.50;;;;;7.25;71.16;100628.94;5056082;28;45658;-63
2022/01/10 00:20:15;;;;;;;;;44.00;37.25;;;;;7.33;70.90;100650.78;5055626;28;45741;-64
2022/01/10 00:22:45;;;;;;;;;49.25;41.00;;;;;7.32;71.48;100653.38;5057701;28;45597;-64
2022/01/10 00:25:12;;;;;;;;;43.00;36.25;;;;;7.42;71.45;100669.13;5060376;28;45280;-64
2022/01/10 00:27:38;;;;;;;;;49.25;39.50;;;;;7.32;71.00;100656.84;5056425;28;45385;-64
2022/01/10 00:30:04;;;;;;;;;46.25;38.50;;;;;7.34;71.08;100660.34;5056111;28;45968;-64
2022/01/10 00:32:30;;;;;;;;;50.00;40.25;;;;;7.34;71.20;100675.09;5058069;28;45410;-64
2022/01/10 00:34:55;;;;;;;;;57.25;44.25;;;;;7.07;71.26;100642.59;5056465;28;45672;-64
2022/01/10 00:37:21;;;;;;;;;49.00;41.25;;;;;7.29;70.95;100680.25;5056119;28;45721;-64
2022/01/10 00:39:48;;;;;;;;;51.00;41.50;;;;;7.32;71.37;100690.72;5055886;28;45928;-64
2022/01/10 00:42:14;;;;;;;;;45.00;37.50;;;;;7.33;71.46;100686.38;5055403;28;45355;-65
2022/01/10 00:44:45;;;;;;;;;48.25;40.00;;;;;7.26;71.29;100674.09;5055829;28;45323;-64
2022/01/10 00:47:11;;;;;;;;;48.00;38.75;;;;;7.31;70.97;100686.38;5056384;28;45427;-64
2022/01/10 00:49:37;;;;;;;;;41.00;36.75;;;;;7.38;71.16;100696.03;5059752;28;45583;-64
2022/01/10 00:52:04;;;;;;;;;47.25;38.25;;;;;7.43;70.92;100704.78;5056721;28;45449;-64
2022/01/10 00:54:30;;;;;;;;;45.00;36.25;;;;;7.36;71.24;100691.66;5055631;28;45371;-64
2022/01/10 00:56:58;;;;;;;;;44.25;37.50;;;;;7.42;71.16;100699.53;5058650;28;46014;-65
2022/01/10 00:59:23;;;;;;;;;48.25;37.50;;;;;7.38;71.25;100700.34;5054945;28;45447;-64
2022/01/10 01:01:49;;;;;;;;;47.25;37.75;;;;;7.32;71.12;100701.13;5055818;28;45391;-65
2022/01/10 01:04:15;;;;;;;;;42.75;35.50;;;;;7.27;71.22;100694.97;5060331;28;45344;-65
2022/01/10 01:06:41;;;;;;;;;44.25;36.50;;;;;7.25;70.79;100706.22;5059468;28;45506;-65
2022/01/10 01:09:09;;;;;;;;;47.50;38.50;;;;;7.29;71.35;100721.06;5060047;28;45438;-64
2022/01/10 01:17:15;;;;;;;;;40.00;34.75;;;;;7.37;71.26;100730.72;5047169;28;45591;-64
2022/01/10 01:25:12;;;;;;;;;50.50;40.00;;;;;7.40;71.36;100746.44;5059179;28;45331;-64
2022/01/10 01:27:38;;;;;;;;;52.50;41.00;;;;;7.30;71.51;100738.44;5055716;28;45465;-64
2022/01/10 01:30:06;;;;;;;;;47.00;37.50;;;;;7.20;71.94;100740.91;5054079;28;45698;-64
2022/01/10 01:32:32;;;;;;;;;49.00;41.25;;;;;7.23;72.16;100758.31;5054569;28;45562;-64
2022/01/10 01:35:03;;;;;;;;;57.25;45.00;;;;;7.19;72.33;100761.72;5055388;28;45828;-64
2022/01/10 01:37:29;;;;;;;;;53.50;42.50;;;;;6.95;72.64;100755.25;5040919;28;45554;-63
2022/01/10 01:39:56;;;;;;;;;55.75;43.75;;;;;7.00;72.61;100777.03;5058510;28;46598;-65
2022/01/10 01:42:42;;;;;;;;;53.75;42.25;;;;;6.96;72.98;100784.78;5058328;28;45330;-64
2022/01/10 01:45:11;;;;;;;;;57.75;45.00;;;;;6.96;73.18;100784.78;5054179;28;45506;-65
2022/01/10 01:47:38;;;;;;;;;51.25;41.75;;;;;6.78;72.95;100762.75;5055113;28;45799;-64
2022/01/10 01:50:06;;;;;;;;;51.00;41.00;;;;;7.03;72.60;100790.97;5058143;28;46440;-64
2022/01/10 01:52:33;;;;;;;;;48.25;39.75;;;;;6.85;73.29;100784.56;5055070;28;45441;-65
2022/01/10 01:54:59;;;;;;;;;57.00;45.75;;;;;6.61;73.47;100752.91;5054527;28;45419;-64
2022/01/10 01:57:25;;;;;;;;;60.75;46.50;;;;;6.87;73.42;100810.66;5054466;28;45395;-64
2022/01/10 01:59:51;;;;;;;;;53.00;44.25;;;;;6.79;73.74;100806.19;5053525;28;45776;-65
2022/01/10 02:02:17;;;;;;;;;48.25;39.75;;;;;6.77;73.45;100804.41;5036735;28;45457;-64
2022/01/10 02:04:42;;;;;;;;;57.25;46.50;;;;;6.68;74.13;100799.00;5040100;28;45354;-65
2022/01/10 02:07:08;;;;;;;;;55.00;44.50;;;;;6.67;74.23;100811.16;5055550;28;45438;-64
2022/01/10 02:09:33;;;;;;;;;55.25;45.25;;;;;6.61;74.44;100807.56;5054071;28;45462;-65
2022/01/10 02:11:59;;;;;;;;;54.00;43.75;;;;;6.63;74.64;100808.47;5057693;28;45260;-65
2022/01/10 02:14:25;;;;;;;;;53.25;43.50;;;;;6.59;74.83;100815.31;5052911;28;45522;-64
2022/01/10 02:16:57;;;;;;;;;52.75;41.25;;;;;6.56;74.81;100805.72;5054583;28;45451;-64
2022/01/10 02:19:23;;;;;;;;;53.00;43.25;;;;;6.66;74.43;100817.19;5058130;28;45471;-63
2022/01/10 02:21:49;;;;;;;;;50.75;42.50;;;;;6.63;74.33;100827.56;5055687;28;45366;-64
2022/01/10 02:24:16;;;;;;;;;54.75;43.00;;;;;6.66;74.66;100826.72;5054068;28;45417;-65
2022/01/10 02:26:46;;;;;;;;;55.00;46.00;;;;;6.59;74.68;100821.41;5035830;28;45503;-65
2022/01/10 02:29:12;;;;;;;;;58.75;46.75;;;;;6.50;75.19;100817.75;5053469;28;45806;-65
2022/01/10 02:31:40;;;;;;;;;58.25;46.50;;;;;6.41;75.59;100823.66;5053554;28;45549;-64
2022/01/10 02:34:06;;;;;;;;;59.50;46.25;;;;;6.27;75.50;100809.50;5053760;28;45454;-65
2022/01/10 02:36:32;;;;;;;;;54.25;43.00;;;;;6.39;75.72;100824.47;5036043;28;45550;-65
2022/01/10 02:39:00;;;;;;;;;51.75;41.75;;;;;6.39;75.34;100824.47;5058852;28;45972;-66
2022/01/10 02:41:34;;;;;;;;;49.25;41.50;;;;;6.44;75.72;100828.91;5043256;28;45323;-65
2022/01/10 02:44:04;;;;;;;;;52.25;43.00;;;;;6.45;74.95;100830.66;5057530;28;45681;-64
2022/01/10 02:46:33;;;;;;;;;54.50;41.25;;;;;6.47;75.43;100825.50;5056961;28;45396;-65
2022/01/10 02:48:59;;;;;;;;;53.25;43.50;;;;;6.50;75.12;100822.94;5058912;28;45707;-65
2022/01/10 02:51:25;;;;;;;;;47.00;38.25;;;;;6.48;75.51;100832.47;5057756;28;45394;-65
2022/01/10 02:53:50;;;;;;;;;51.00;42.25;;;;;6.49;75.17;100845.50;5056883;28;45430;-67
2022/01/10 02:56:16;;;;;;;;;47.50;39.75;;;;;6.50;74.81;100848.97;5057073;28;45375;-65
2022/01/10 02:58:42;;;;;;;;;53.25;42.25;;;;;6.44;74.97;100852.31;5056785;28;45700;-66
2022/01/10 03:01:07;;;;;;;;;52.25;42.75;;;;;6.52;74.58;100853.34;5058321;28;45506;-64
2022/01/10 03:03:33;;;;;;;;;57.50;46.25;;;;;6.37;74.93;100858.25;5058203;28;45394;-64
2022/01/10 03:06:00;;;;;;;;;56.00;44.00;;;;;6.42;74.98;100874.84;5057860;28;45522;-65
2022/01/10 03:08:28;;;;;;;;;52.75;42.25;;;;;6.33;76.13;100869.44;5056685;28;46046;-64
2022/01/10 03:10:54;;;;;;;;;52.25;43.00;;;;;6.37;75.69;100874.72;5056861;28;45301;-63
2022/01/10 03:13:20;;;;;;;;;55.50;45.50;;;;;6.29;75.48;100865.91;5056941;28;46262;-65
2022/01/10 03:15:49;;;;;;;;;43.50;37.75;;;;;6.21;75.81;100864.84;5058873;28;45512;-65
2022/01/10 03:18:15;;;;;;;;;53.50;43.50;;;;;6.20;75.38;100857.91;5042336;28;47035;-64
2022/01/10 03:20:41;;;;;;;;;49.25;41.00;;;;;6.40;75.49;100891.25;5060990;28;45533;-64
2022/01/10 03:23:07;;;;;;;;;54.25;43.75;;;;;6.21;75.56;100870.03;5056266;28;45319;-64
2022/01/10 03:25:32;;;;;;;;;55.00;43.75;;;;;6.19;75.37;100870.84;5055486;28;45459;-65
2022/01/10 03:27:59;;;;;;;;;59.75;46.00;;;;;5.96;75.87;100847.84;5057526;28;45470;-65
2022/01/10 03:30:26;;;;;;;;;54.50;43.00;;;;;6.23;75.59;100878.75;5061021;28;45272;-65
2022/01/10 03:32:52;;;;;;;;;51.00;43.00;;;;;6.36;75.47;100904.22;5061097;28;45292;-66
2022/01/10 03:35:19;;;;;;;;;49.00;40.50;;;;;6.33;75.48;100911.91;5061386;28;45356;-66
2022/01/10 03:37:45;;;;;;;;;58.00;45.25;;;;;6.09;75.86;100890.56;5060561;28;46555;-66
2022/01/10 03:40:11;;;;;;;;;55.50;46.00;;;;;6.10;76.42;100901.03;5059270;28;45469;-64
2022/01/10 03:42:41;;;;;;;;;53.50;43.25;;;;;6.21;75.57;100918.59;5056067;28;45453;-65
2022/01/10 03:45:07;;;;;;;;;51.50;44.00;;;;;6.11;76.46;100917.50;5037876;28;45456;-65
2022/01/10 03:47:33;;;;;;;;;51.50;42.00;;;;;6.09;76.01;100906.19;5058964;28;46063;-65
2022/01/10 03:49:58;;;;;;;;;57.75;46.00;;;;;6.15;75.88;100921.94;5059118;28;45493;-64
2022/01/10 03:52:25;;;;;;;;;58.75;44.75;;;;;6.10;76.54;100924.44;5059537;28;45411;-64
2022/01/10 03:54:51;;;;;;;;;54.75;44.75;;;;;6.18;76.09;100935.00;5055854;28;45620;-65
2022/01/10 03:57:16;;;;;;;;;53.00;44.50;;;;;6.22;75.63;100934.25;5055760;28;45476;-65
2022/01/10 03:59:42;;;;;;;;;54.00;43.75;;;;;6.21;75.70;100932.47;5055815;28;45495;-65
2022/01/10 04:02:08;;;;;;;;;55.75;44.00;;;;;6.25;75.65;100933.44;5059089;28;45513;-65
2022/01/10 04:04:36;;;;;;;;;55.00;46.25;;;;;6.19;75.79;100920.28;5056454;28;45481;-65
2022/01/10 04:07:02;;;;;;;;;54.75;43.50;;;;;6.30;75.43;100940.47;5055558;28;46544;-65
2022/01/10 04:09:28;;;;;;;;;54.50;43.25;;;;;6.29;75.67;100943.94;5055830;28;45997;-64
2022/01/10 04:11:54;;;;;;;;;54.75;44.00;;;;;6.16;75.70;100923.69;5055706;28;45454;-64
2022/01/10 04:14:19;;;;;;;;;52.50;44.25;;;;;6.22;75.35;100949.84;5037952;28;45523;-64
2022/01/10 04:16:45;;;;;;;;;60.00;45.25;;;;;6.22;75.59;100943.78;5054989;28;45676;-64
2022/01/10 04:19:11;;;;;;;;;52.50;43.00;;;;;6.15;75.91;100953.16;5055332;28;45449;-64
2022/01/10 04:21:36;;;;;;;;;60.75;48.00;;;;;6.05;76.55;100961.56;5055437;28;45641;-65
2022/01/10 04:24:02;;;;;;;;;55.25;43.50;;;;;5.95;76.57;100955.25;5055881;28;45616;-65
2022/01/10 04:26:27;;;;;;;;;58.25;45.00;;;;;6.04;76.10;100965.00;5055735;28;46502;-65
2022/01/10 04:28:53;;;;;;;;;52.25;42.50;;;;;6.01;76.31;100967.53;5054881;28;45466;-65
2022/01/10 04:31:19;;;;;;;;;52.25;43.25;;;;;6.00;75.82;100971.84;5055764;28;45893;-64
2022/01/10 04:33:44;;;;;;;;;50.25;40.50;;;;;6.03;76.41;100971.06;5055629;28;45627;-64
2022/01/10 04:36:11;;;;;;;;;54.25;43.50;;;;;5.91;75.86;100954.28;5055483;28;46084;-66
2022/01/10 04:38:37;;;;;;;;;61.00;48.33;;;;;5.86;76.44;100963.69;5055153;28;45674;-65
2022/01/10 04:41:04;;;;;;;;;62.00;49.00;;;;;5.98;76.77;100985.66;5055273;28;45402;-65
2022/01/10 04:43:30;;;;;;;;;60.33;48.00;;;;;5.90;77.05;100995.81;5057978;28;45454;-65
2022/01/10 04:45:56;;;;;;;;;59.50;46.00;;;;;5.87;76.47;100994.03;5056645;28;45569;-65
2022/01/10 04:48:28;;;;;;;;;60.75;48.75;;;;;5.79;77.35;100995.56;5054786;28;45379;-64
2022/01/10 04:53:23;;;;;;;;;55.50;43.00;;;;;5.88;76.59;101008.78;5055171;28;45503;-64
2022/01/10 04:55:49;;;;;;;;;56.50;45.50;;;;;5.86;76.96;101013.09;5036600;28;46664;-64
2022/01/10 04:58:14;;;;;;;;;53.50;45.50;;;;;5.80;76.65;101018.13;5055240;28;45547;-66
2022/01/10 05:00:40;;;;;;;;;58.67;47.67;;;;;5.81;76.92;101029.38;5055008;28;45354;-65
2022/01/10 05:03:06;;;;;;;;;62.33;49.00;;;;;5.87;76.68;101038.22;5055045;28;45402;-65
2022/01/10 05:05:31;;;;;;;;;54.00;45.00;;;;;5.71;77.40;101036.06;5055333;28;45781;-65
2022/01/10 05:07:57;;;;;;;;;64.33;50.00;;;;;5.76;77.12;101038.78;5055119;28;45702;-65
2022/01/10 05:10:22;;;;;;;;;57.25;47.00;;;;;5.77;76.71;101043.16;5055256;28;45370;-65
2022/01/10 05:12:49;;;;;;;;;59.00;47.00;;;;;5.65;76.24;101013.41;5055051;28;45658;-64
2022/01/10 05:15:14;;;;;;;;;61.50;49.25;;;;;5.63;75.86;101022.88;5054093;28;46544;-64
2022/01/10 05:17:40;;;;;;;;;60.67;48.33;;;;;5.70;76.04;101042.97;5054601;28;45429;-64
2022/01/10 05:20:06;;;;;;;;;59.00;47.67;;;;;5.60;75.89;101034.88;5055389;28;45395;-64
2022/01/10 05:22:33;;;;;;;;;58.67;48.33;;;;;5.71;76.47;101044.72;5059025;28;45530;-65
2022/01/10 05:24:59;;;;;;;;;66.00;54.00;;;;;5.70;76.15;101053.38;5056336;28;46333;-64
2022/01/10 05:27:24;;;;;;;;;61.75;49.00;;;;;5.69;76.06;101062.00;5054506;28;45313;-65
2022/01/10 05:29:50;;;;;;;;;62.67;49.33;;;;;5.71;76.02;101065.53;5035573;28;45553;-64
2022/01/10 05:32:16;;;;;;;;;59.00;48.00;;;;;5.60;76.01;101050.47;5053630;28;45527;-65
2022/01/10 05:34:42;;;;;;;;;65.33;50.33;;;;;5.35;76.22;101031.63;5055071;28;45593;-64
2022/01/10 05:37:07;;;;;;;;;63.00;50.67;;;;;5.57;76.52;101069.47;5058774;28;45300;-65
2022/01/10 05:39:33;;;;;;;;;62.67;49.00;;;;;5.54;76.84;101082.38;5058887;28;45423;-67
2022/01/10 05:41:59;;;;;;;;;66.00;49.67;;;;;5.35;76.63;101055.00;5037560;28;45525;-64
2022/01/10 05:44:25;;;;;;;;;60.33;48.33;;;;;5.45;75.98;101064.81;5054341;28;45464;-64
2022/01/10 05:46:51;;;;;;;;;58.75;46.25;;;;;5.58;75.84;101086.84;5052792;28;45468;-66
2022/01/10 05:49:24;;;;;;;;;63.00;49.00;;;;;5.29;76.16;101047.03;5055088;28;45456;-64
2022/01/10 05:51:51;;;;;;;;;61.33;49.00;;;;;5.62;75.58;101098.19;5057088;28;45520;-65
2022/01/10 05:54:16;;;;;;;;;65.00;50.67;;;;;5.62;75.41;101104.25;5054330;28;45756;-67
2022/01/10 05:56:42;;;;;;;;;57.33;47.67;;;;;5.47;75.72;101086.53;5057574;28;45850;-64
2022/01/10 05:59:07;;;;;;;;;61.67;48.33;;;;;5.61;75.77;101104.22;5058585;28;45536;-65
2022/01/10 06:01:33;;;;;;;;;60.25;48.00;;;;;5.65;75.33;101126.88;5057716;28;45382;-66
2022/01/10 06:03:59;;;;;;;;;58.00;42.67;;;;;5.51;75.41;101109.16;5039808;28;46066;-65
2022/01/10 06:06:24;;;;;;;;;63.33;49.33;;;;;5.60;75.51;101139.72;5033366;28;46179;-67
2022/01/10 06:08:50;;;;;;;;;62.67;51.00;;;;;5.69;74.73;101146.88;5036168;28;45779;-65
2022/01/10 06:11:15;;;;;;;;;60.00;47.00;;;;;5.50;75.04;101111.69;5038543;28;45346;-65
2022/01/10 06:13:41;;;;;;;;;64.67;51.33;;;;;5.45;74.95;101131.47;5033857;28;45992;-66
2022/01/10 06:16:07;;;;;;;;;59.00;46.33;;;;;5.47;75.05;101166.19;5033684;28;45888;-66
2022/01/10 06:18:33;;;;;;;;;67.67;51.67;;;;;5.42;75.04;101166.03;5043228;28;46452;-65
2022/01/10 06:20:59;;;;;;;;;64.00;48.33;;;;;5.41;74.35;101182.47;5034065;28;45650;-65
2022/01/10 06:23:40;;;;;;;;;65.00;51.00;;;;;5.44;74.72;101189.47;5033756;28;45472;-65
2022/01/10 06:26:07;;;;;;;;;66.33;54.33;;;;;5.34;74.23;101185.72;5022807;28;45492;-65
2022/01/10 06:28:33;;;;;;;;;65.00;51.00;;;;;5.26;74.65;101182.00;5056754;28;45445;-65
2022/01/10 06:30:58;;;;;;;;;65.00;52.67;;;;;5.23;74.02;101194.91;5032157;28;45802;-65
2022/01/10 06:33:24;;;;;;;;;65.67;50.33;;;;;5.24;75.26;101200.16;5052250;28;45709;-66
2022/01/10 06:35:50;;;;;;;;;63.67;51.00;;;;;5.06;74.67;101161.50;5053168;28;45343;-66
2022/01/10 06:38:15;;;;;;;;;64.00;50.33;;;;;4.93;74.42;101163.66;5053618;28;45614;-65
2022/01/10 06:40:41;;;;;;;;;58.67;47.33;;;;;5.22;74.17;101199.22;5035781;28;45480;-64
2022/01/10 06:43:07;;;;;;;;;70.00;52.33;;;;;5.25;74.58;101209.69;5052955;28;45481;-65
2022/01/10 06:45:32;;;;;;;;;63.67;49.00;;;;;5.04;75.27;101209.88;5053202;28;45621;-66
2022/01/10 06:47:59;;;;;;;;;57.67;47.00;;;;;4.93;75.51;101216.44;5053569;28;45304;-65
2022/01/10 06:50:24;;;;;;;;;64.00;48.00;;;;;4.93;76.45;101237.22;5053716;28;45605;-65
2022/01/10 06:52:53;;;;;;;;;61.33;47.00;;;;;4.86;76.99;101232.66;5053851;28;45864;-65
2022/01/10 06:55:19;;;;;;;;;66.67;50.00;;;;;4.72;77.65;101241.69;5056880;28;45475;-65
2022/01/10 06:57:45;;;;;;;;;58.67;46.00;;;;;4.60;78.22;101262.91;5053333;28;45347;-64
2022/01/10 07:00:11;;;;;;;;;61.00;48.33;;;;;4.52;78.84;101248.81;5053501;28;45469;-66
2022/01/10 07:02:37;;;;;;;;;55.50;43.50;;;;;4.59;78.92;101275.00;5054262;28;46418;-66
2022/01/10 07:05:02;;;;;;;;;56.75;44.25;;;;;4.49;79.04;101277.25;5055189;28;45367;-65
2022/01/10 07:07:28;;;;;;;;;52.50;43.50;;;;;4.44;79.34;101290.03;5053796;28;45732;-65
2022/01/10 07:09:54;;;;;;;;;55.25;43.25;;;;;4.32;79.11;101276.59;5056681;28;45550;-66
2022/01/10 07:12:19;;;;;;;;;59.50;44.25;;;;;4.27;79.89;101302.38;5057073;28;45735;-65
2022/01/10 07:14:45;;;;;;;;;54.00;41.25;;;;;4.18;79.68;101284.78;5057378;28;45437;-65
2022/01/10 07:17:10;;;;;;;;;53.75;44.00;;;;;4.33;79.55;101312.09;5057404;28;45324;-65
2022/01/10 07:19:36;;;;;;;;;56.00;43.00;;;;;4.08;79.39;101269.72;5057397;28;45288;-65
2022/01/10 07:22:03;;;;;;;;;57.25;43.50;;;;;4.41;79.84;101337.50;5056615;28;45981;-66
2022/01/10 07:24:29;;;;;;;;;52.25;43.00;;;;;4.49;78.61;101336.91;5050854;28;45535;-66
2022/01/10 07:26:54;;;;;;;;;58.00;44.25;;;;;4.48;79.35;101348.97;5040730;28;45463;-64
2022/01/10 07:29:20;;;;;;;;;59.25;44.50;;;;;4.38;79.22;101352.06;5050789;28;45485;-66
2022/01/10 07:31:46;;;;;;;;;46.75;35.75;;;;;4.35;78.80;101334.66;5040143;28;45629;-64
2022/01/10 07:34:18;;;;;;;;;47.00;37.25;;;;;4.58;78.91;101357.97;5037496;28;45538;-66
2022/01/10 07:36:47;;;;;;;;;52.75;41.00;;;;;4.48;78.52;101356.75;5035909;28;45320;-65
2022/01/10 07:39:13;;;;;;;;;57.25;42.50;;;;;4.42;78.00;101359.13;5034542;28;45849;-64
2022/01/10 07:41:39;;;;;;;;;54.75;40.25;;;;;4.27;78.87;101356.81;5036145;28;45660;-65
2022/01/10 07:44:05;;;;;;;;;51.00;41.50;;;;;4.20;78.19;101347.03;5036707;28;45468;-65
2022/01/10 07:46:30;;;;;;;;;45.25;37.75;;;;;4.37;77.39;101394.38;5035953;28;45398;-65
2022/01/10 07:48:56;;;;;;;;;40.00;35.75;;;;;4.40;77.00;101392.78;5035433;28;45634;-66
2022/01/10 07:51:23;;;;;;;;;46.00;38.25;;;;;4.38;77.28;101406.53;5035461;28;45462;-65
2022/01/10 07:53:53;;;;;;;;;48.50;37.00;;;;;4.27;77.06;101389.66;5035536;28;45315;-66
2022/01/10 07:56:18;;;;;;;;;50.75;38.00;;;;;4.36;77.35;101427.19;5045701;28;45611;-66
2022/01/10 07:58:51;;;;;;;;;44.00;35.50;;;;;4.24;76.60;101443.16;5058939;28;45610;-65
2022/01/10 08:01:19;;;;;;;;;44.25;35.00;;;;;3.99;77.30;101430.97;5041828;28;46314;-64
2022/01/10 08:03:52;;;;;;;;;46.00;35.50;;;;;4.09;77.53;101445.19;5060290;28;45407;-65
2022/01/10 08:06:19;;;;;;;;;39.50;34.00;;;;;4.05;77.14;101435.50;5056407;28;45311;-66
2022/01/10 08:08:45;;;;;;;;;40.50;33.75;;;;;4.27;76.58;101457.06;5056630;28;45597;-65
2022/01/10 08:11:11;;;;;;;;;38.75;33.50;;;;;4.36;76.43;101463.50;5060121;28;46001;-66
2022/01/10 08:13:36;;;;;;;;;32.75;31.00;;;;;4.35;75.80;101458.28;5057856;28;45387;-66
2022/01/10 08:16:04;;;;;;;;;44.75;34.25;;;;;4.20;75.58;101461.13;5056019;28;45856;-66
2022/01/10 08:18:31;;;;;;;;;36.00;32.75;;;;;4.21;76.71;101455.16;5055615;28;45587;-65
2022/01/10 08:21:01;;;;;;;;;45.75;37.00;;;;;4.19;76.20;101462.84;5055026;28;45418;-65
2022/01/10 08:23:27;;;;;;;;;40.50;34.50;;;;;4.07;76.72;101471.88;5060053;28;45396;-65
2022/01/10 08:25:52;;;;;;;;;50.75;37.00;;;;;3.99;76.94;101469.84;5058888;28;45288;-66
2022/01/10 08:28:18;;;;;;;;;44.25;34.50;;;;;3.78;77.56;101476.75;5055752;28;45483;-65
2022/01/10 08:30:44;;;;;;;;;49.75;36.25;;;;;3.61;78.65;101463.09;5055120;28;45485;-66
2022/01/10 08:33:09;;;;;;;;;49.50;37.00;;;;;3.64;79.54;101483.94;5055170;28;45730;-65
2022/01/10 08:35:35;;;;;;;;;47.00;35.25;;;;;3.61;78.74;101463.09;5059389;28;45484;-65
2022/01/10 08:38:01;;;;;;;;;40.25;32.25;;;;;3.36;78.79;101438.72;5059278;28;45395;-65
2022/01/10 08:40:27;;;;;;;;;38.50;32.50;;;;;3.79;78.57;101487.16;5059172;28;45481;-65
2022/01/10 08:42:53;;;;;;;;;46.00;34.75;;;;;3.77;79.14;101509.56;5039042;28;45476;-65
2022/01/10 08:45:19;;;;;;;;;50.00;38.00;;;;;3.68;78.19;101465.13;5036936;28;45421;-65
2022/01/10 08:47:46;;;;;;;;;49.00;36.50;;;;;3.94;78.67;101510.25;5055012;28;46104;-65
2022/01/10 08:50:12;;;;;;;;;49.75;36.00;;;;;3.99;78.31;101516.50;5058019;28;46722;-65
2022/01/10 08:52:40;;;;;;;;;46.25;37.00;;;;;3.92;79.01;101511.00;5050551;28;45933;-66
2022/01/10 08:55:10;;;;;;;;;55.00;38.50;;;;;3.98;78.58;101530.25;5034555;28;45513;-65
2022/01/10 08:57:36;;;;;;;;;47.00;38.75;;;;;3.97;78.94;101533.69;5052717;28;45276;-66
2022/01/10 09:00:07;;;;;;;;;50.00;37.00;;;;;3.85;79.11;101512.47;5054822;28;46227;-64
2022/01/10 09:02:33;;;;;;;;;40.50;31.75;;;;;4.07;78.45;101542.72;5055094;28;45919;-66
2022/01/10 09:04:59;;;;;;;;;38.75;32.00;;;;;4.08;78.26;101539.34;5040797;28;45348;-65
2022/01/10 09:07:24;;;;;;;;;40.00;31.00;;;;;4.12;77.38;101529.97;5055955;28;45336;-66
2022/01/10 09:09:50;;;;;;;;;41.25;33.00;;;;;4.04;77.35;101519.28;5045275;28;46148;-66
2022/01/10 09:12:16;;;;;;;;;42.75;32.75;;;;;4.24;77.42;101554.66;5044954;28;45510;-66
2022/01/10 09:14:41;;;;;;;;;48.25;37.75;;;;;4.20;78.49;101563.16;5046238;28;45476;-65
2022/01/10 09:17:16;;;;;;;;;44.75;34.75;;;;;4.24;78.66;101562.44;5038934;28;45466;-65
2022/01/10 09:19:42;;;;;;;;;47.50;38.25;;;;;4.25;77.40;101551.28;5038543;28;46641;-65
2022/01/10 09:22:09;;;;;;;;;49.75;39.00;;;;;4.42;77.73;101570.09;5038516;28;45294;-66
2022/01/10 09:24:34;;;;;;;;;50.50;40.00;;;;;4.49;77.84;101580.75;5036620;28;45368;-66
2022/01/10 09:27:04;;;;;;;;;44.00;36.50;;;;;4.58;76.57;101576.81;5034948;28;45472;-66
2022/01/10 09:29:30;;;;;;;;;38.75;33.25;;;;;4.54;76.68;101585.28;5035017;28;45677;-65
2022/01/10 09:31:55;;;;;;;;;48.00;38.50;;;;;4.30;76.58;101558.38;5034680;28;45269;-65
2022/01/10 09:34:21;;;;;;;;;49.50;39.00;;;;;4.51;77.03;101589.44;5054382;28;45269;-66
2022/01/10 09:36:47;;;;;;;;;47.50;38.00;;;;;4.38;76.75;101604.50;5055970;28;45991;-66
2022/01/10 09:39:13;;;;;;;;;46.50;37.00;;;;;4.21;77.97;101579.59;5053106;28;45329;-66
2022/01/10 09:41:39;;;;;;;;;47.75;36.00;;;;;4.46;77.45;101621.28;5037531;28;45343;-67
2022/01/10 09:44:06;;;;;;;;;41.50;34.75;;;;;3.70;77.88;101484.22;5037973;28;45463;-65
2022/01/10 09:46:33;;;;;;;;;46.25;38.25;;;;;4.33;77.20;101599.97;5038196;28;45460;-65
2022/01/10 09:49:01;;;;;;;;;30.50;29.50;;;;;4.40;77.85;101608.06;5040124;28;46183;-66
2022/01/10 09:51:29;;;;;;;;;48.00;36.00;;;;;4.52;76.67;101602.50;5058348;28;45608;-64
2022/01/10 09:54:01;;;;;;;;;40.50;34.25;;;;;4.37;77.69;101620.91;5054774;28;45562;-65
2022/01/10 09:56:28;;;;;;;;;36.75;31.00;;;;;4.39;77.92;101641.72;5052666;28;45403;-66
2022/01/10 09:58:54;;;;;;;;;45.75;35.50;;;;;4.38;77.82;101622.66;5038060;28;46249;-66
2022/01/10 10:01:20;;;;;;;;;36.50;32.00;;;;;4.43;77.93;101641.03;5037344;28;45428;-65
2022/01/10 10:03:48;;;;;;;;;48.00;35.50;;;;;4.42;77.46;101641.84;5016276;28;45378;-65
2022/01/10 10:06:15;;;;;;;;;48.00;34.75;;;;;4.32;78.09;101644.88;5040768;28;45316;-66
2022/01/10 10:08:43;;;;;;;;;49.50;37.25;;;;;4.26;78.98;101658.47;5053963;28;45468;-66
2022/01/10 10:11:15;;;;;;;;;45.50;35.00;;;;;4.21;78.72;101647.91;5048314;28;46267;-65
2022/01/10 10:13:52;;;;;;;;;47.50;35.00;;;;;4.09;78.60;101631.84;5033457;28;45568;-66
2022/01/10 10:16:18;;;;;;;;;44.00;36.00;;;;;4.42;79.03;101662.63;5033232;28;45516;-65
2022/01/10 10:18:47;;;;;;;;;50.00;35.25;;;;;4.39;78.82;101657.28;5033361;28;46101;-65
2022/01/10 10:21:20;;;;;;;;;35.00;32.25;;;;;4.46;78.98;101669.69;5036415;28;45293;-65
2022/01/10 10:23:48;;;;;;;;;48.75;38.00;;;;;4.52;78.22;101666.47;5034050;28;45500;-65
2022/01/10 10:26:21;;;;;;;;;48.75;36.75;;;;;4.48;78.37;101662.84;5033720;28;45371;-65
2022/01/10 10:28:49;;;;;;;;;49.50;39.00;;;;;4.44;78.77;101668.75;5016320;28;47111;-65
2022/01/10 10:31:25;;;;;;;;;43.50;36.50;;;;;4.35;79.61;101673.56;5035168;28;45452;-65
2022/01/10 10:33:52;;;;;;;;;44.00;35.75;;;;;4.28;78.88;101654.25;5032940;28;46127;-66
2022/01/10 10:36:17;;;;;;;;;52.50;40.50;;;;;4.55;79.29;101680.44;5033719;28;45293;-66
2022/01/10 10:38:44;;;;;;;;;52.75;40.00;;;;;4.52;79.06;101676.84;5032632;28;45965;-66
2022/01/10 10:41:10;;;;;;;;;50.75;40.50;;;;;4.41;78.93;101663.41;5034597;28;45550;-66
2022/01/10 10:43:39;;;;;;;;;52.25;38.25;;;;;4.46;79.43;101682.66;5019438;28;45394;-67
2022/01/10 10:46:16;;;;;;;;;51.50;37.50;;;;;4.32;79.74;101637.09;5034841;28;45534;-67
2022/01/10 10:48:49;;;;;;;;;50.25;40.50;;;;;4.66;78.66;101689.56;5032632;28;46304;-66
2022/01/10 10:51:15;;;;;;;;;49.25;41.00;;;;;4.28;79.05;101637.81;5014438;28;45749;-66
2022/01/10 10:53:56;;;;;;;;;47.50;37.50;;;;;4.66;79.16;101699.94;5032923;28;45478;-66
2022/01/10 10:56:22;;;;;;;;;47.50;38.50;;;;;4.67;78.80;101683.56;5015256;28;45686;-67
2022/01/10 10:58:48;;;;;;;;;50.50;36.75;;;;;4.56;78.79;101658.00;5035689;28;46067;-64
2022/01/10 11:01:14;;;;;;;;;46.00;35.75;;;;;4.76;79.06;101705.50;5040563;28;45359;-65
2022/01/10 11:03:40;;;;;;;;;46.25;36.25;;;;;4.37;78.87;101639.06;5039929;28;45385;-65
2022/01/10 11:06:08;;;;;;;;;52.00;40.75;;;;;4.85;78.95;101701.59;5036991;28;45566;-64
2022/01/10 11:08:36;;;;;;;;;47.50;38.50;;;;;4.90;78.67;101709.56;5036842;28;45743;-64
2022/01/10 11:11:02;;;;;;;;;49.00;37.75;;;;;4.95;78.76;101700.25;5037153;28;45390;-64
2022/01/10 11:13:35;;;;;;;;;55.25;41.00;;;;;4.97;78.32;101698.59;5037723;28;45486;-65
2022/01/10 11:16:02;;;;;;;;;50.50;38.50;;;;;5.05;78.37;101705.00;5037243;28;45543;-65
2022/01/10 11:18:27;;;;;;;;;54.25;42.50;;;;;5.01;78.27;101708.28;5036454;28;46634;-65
2022/01/10 11:20:57;;;;;;;;;54.25;41.25;;;;;5.15;77.43;101706.25;5041580;28;45458;-65
2022/01/10 11:23:23;;;;;;;;;46.50;40.25;;;;;5.12;77.23;101706.09;5042546;28;45328;-65
2022/01/10 11:25:48;;;;;;;;;55.00;44.00;;;;;4.98;77.24;101692.56;5036649;28;45414;-64
2022/01/10 11:28:25;;;;;;;;;48.00;37.25;;;;;4.76;78.42;101664.88;5035871;28;46293;-65